Time;durP1;ratioP1;P1;durP2;ratioP2;P2;SDS_P1;SDS_P2;PMS_P1;PMS_P2;Temp;Humidity;BMP_temperature;BMP_pressure;BME280_temperature;BME280_humidity;BME280_pressure;Samples;Min_cycle;Max_cycle;Signal;HPM_P1;HPM_P2
2022/08/27 00:02:07;;;;;;;0.13;0.13;;;;;;;;;;5115731;27;20027;-84
2022/08/27 00:04:33;;;;;;;0.00;0.00;;;;;;;;;;5134267;27;20027;-84
2022/08/27 00:06:59;;;;;;;0.00;0.00;;;;;;;;;;5134227;27;20395;-85
2022/08/27 00:09:25;;;;;;;0.10;0.10;;;;;;;;;;5134912;27;20027;-85
2022/08/27 00:11:51;;;;;;;0.00;0.00;;;;;;;;;;5116562;27;20109;-85
2022/08/27 00:14:17;;;;;;;0.00;0.00;;;;;;;;;;5134568;27;20584;-84
2022/08/27 00:16:42;;;;;;;0.00;0.00;;;;;;;;;;5135034;27;20046;-83
2022/08/27 00:19:08;;;;;;;0.15;0.15;;;;;;;;;;5116033;27;20035;-85
2022/08/27 00:21:34;;;;;;;0.00;0.00;;;;;;;;;;5117383;27;20031;-87
2022/08/27 00:24:00;;;;;;;0.00;0.00;;;;;;;;;;5113054;27;20019;-84
2022/08/27 00:26:25;;;;;;;0.43;0.28;;;;;;;;;;5135069;27;20027;-87
2022/08/27 00:28:51;;;;;;;0.22;0.22;;;;;;;;;;5117393;27;20023;-85
2022/08/27 00:31:17;;;;;;;0.00;0.00;;;;;;;;;;5134857;27;20031;-84
2022/08/27 00:33:42;;;;;;;0.28;0.10;;;;;;;;;;5135086;27;20049;-84
2022/08/27 00:36:09;;;;;;;0.00;0.00;;;;;;;;;;5133742;27;20027;-85
2022/08/27 00:38:37;;;;;;;0.00;0.00;;;;;;;;;;5131892;27;20102;-84
2022/08/27 00:41:03;;;;;;;0.00;0.00;;;;;;;;;;5116258;27;21134;-86
2022/08/27 00:43:41;;;;;;;0.20;0.20;;;;;;;;;;5114660;27;20138;-84
2022/08/27 00:46:29;;;;;;;0.00;0.00;;;;;;;;;;5133416;27;20105;-86
2022/08/27 00:49:01;;;;;;;0.00;0.00;;;;;;;;;;5134424;27;20031;-85
2022/08/27 00:51:29;;;;;;;0.00;0.00;;;;;;;;;;5113874;27;20055;-83
2022/08/27 00:53:57;;;;;;;0.03;0.03;;;;;;;;;;5114981;27;20489;-84
2022/08/27 00:56:32;;;;;;;0.00;0.00;;;;;;;;;;5132705;27;20019;-84
2022/08/27 00:58:57;;;;;;;0.00;0.00;;;;;;;;;;5109761;27;20023;-84
2022/08/27 01:01:28;;;;;;;0.00;0.00;;;;;;;;;;5112791;27;20755;-84
2022/08/27 01:03:57;;;;;;;0.45;0.45;;;;;;;;;;5111089;27;20267;-86
2022/08/27 01:06:27;;;;;;;0.00;0.00;;;;;;;;;;5132141;27;20080;-85
2022/08/27 01:08:58;;;;;;;;;;;;;;;;;;5111761;27;20031;-87
2022/08/27 01:11:24;;;;;;;0.00;0.00;;;;;;;;;;5115617;27;19956;-85
2022/08/27 01:13:50;;;;;;;0.47;0.43;;;;;;;;;;5129873;27;20882;-86
2022/08/27 01:16:22;;;;;;;0.00;0.00;;;;;;;;;;5133891;27;20105;-85
2022/08/27 01:18:48;;;;;;;0.10;0.05;;;;;;;;;;5127097;27;20023;-84
2022/08/27 01:21:21;;;;;;;0.20;0.20;;;;;;;;;;5133873;27;20046;-87
2022/08/27 01:24:21;;;;;;;0.00;0.00;;;;;;;;;;5129708;27;20049;-87
2022/08/27 01:26:48;;;;;;;0.00;0.00;;;;;;;;;;5067710;27;20034;-87
2022/08/27 01:29:14;;;;;;;0.00;0.00;;;;;;;;;;5110232;27;20032;-84
2022/08/27 01:31:39;;;;;;;0.10;0.10;;;;;;;;;;5130856;27;20058;-86
2022/08/27 01:34:05;;;;;;;0.00;0.00;;;;;;;;;;5131212;27;20471;-87
2022/08/27 01:36:31;;;;;;;0.17;0.17;;;;;;;;;;5131357;27;20039;-85
2022/08/27 01:38:57;;;;;;;0.20;0.20;;;;;;;;;;5113052;27;20023;-86
2022/08/27 01:41:23;;;;;;;0.28;0.28;;;;;;;;;;5113391;27;20035;-82
2022/08/27 01:43:50;;;;;;;0.13;0.13;;;;;;;;;;5130070;27;20015;-83
2022/08/27 01:46:23;;;;;;;0.03;0.03;;;;;;;;;;5111749;27;20027;-84
2022/08/27 01:48:49;;;;;;;0.00;0.00;;;;;;;;;;5131313;27;20112;-87
2022/08/27 01:51:14;;;;;;;0.00;0.00;;;;;;;;;;5132702;27;20436;-85
2022/08/27 01:53:40;;;;;;;0.00;0.00;;;;;;;;;;5114186;27;20023;-85
2022/08/27 01:56:05;;;;;;;0.00;0.00;;;;;;;;;;5133363;27;20380;-85
2022/08/27 01:58:32;;;;;;;0.00;0.00;;;;;;;;;;5130652;27;20031;-85
2022/08/27 02:01:04;;;;;;;0.45;0.45;;;;;;;;;;5113905;27;20027;-84
2022/08/27 02:03:30;;;;;;;0.00;0.00;;;;;;;;;;5132744;27;20023;-83
2022/08/27 02:05:56;;;;;;;0.00;0.00;;;;;;;;;;5131075;27;20023;-85
2022/08/27 02:08:21;;;;;;;4.28;2.63;;;;;;;;;;5111588;27;20504;-85
2022/08/27 02:10:48;;;;;;;0.00;0.00;;;;;;;;;;5132264;27;20420;-84
2022/08/27 02:13:14;;;;;;;0.10;0.10;;;;;;;;;;5130971;27;20708;-85
2022/08/27 02:15:41;;;;;;;1.38;1.27;;;;;;;;;;5112479;27;20015;-85
2022/08/27 02:18:07;;;;;;;0.00;0.00;;;;;;;;;;5113563;28;20095;-84
2022/08/27 02:20:33;;;;;;;0.00;0.00;;;;;;;;;;5129995;27;20023;-84
2022/08/27 02:22:59;;;;;;;0.00;0.00;;;;;;;;;;5113320;28;20039;-83
2022/08/27 02:25:27;;;;;;;0.00;0.00;;;;;;;;;;5132165;28;20024;-84
2022/08/27 02:27:52;;;;;;;0.10;0.10;;;;;;;;;;5132685;28;20027;-84
2022/08/27 02:30:21;;;;;;;0.00;0.00;;;;;;;;;;5131641;27;20027;-84
2022/08/27 02:32:47;;;;;;;0.00;0.00;;;;;;;;;;5132137;28;20775;-85
2022/08/27 02:35:15;;;;;;;0.00;0.00;;;;;;;;;;5132682;28;20058;-85
2022/08/27 02:37:40;;;;;;;2.92;1.10;;;;;;;;;;5113715;28;20849;-85
2022/08/27 02:40:07;;;;;;;0.00;0.00;;;;;;;;;;5132784;28;20027;-85
2022/08/27 02:42:33;;;;;;;0.00;0.00;;;;;;;;;;5131711;28;20808;-85
2022/08/27 02:44:58;;;;;;;0.65;0.65;;;;;;;;;;5113838;28;20118;-85
2022/08/27 02:47:24;;;;;;;0.30;0.30;;;;;;;;;;5131804;28;20034;-85
2022/08/27 02:49:50;;;;;;;0.00;0.00;;;;;;;;;;5113810;28;20917;-85
2022/08/27 02:52:16;;;;;;;0.00;0.00;;;;;;;;;;5113877;28;20382;-84
2022/08/27 02:54:42;;;;;;;0.60;0.60;;;;;;;;;;5108410;28;20042;-84
2022/08/27 02:57:08;;;;;;;0.43;0.43;;;;;;;;;;5100021;28;20063;-87
2022/08/27 02:59:34;;;;;;;0.00;0.00;;;;;;;;;;5102805;28;20086;-85
2022/08/27 03:02:00;;;;;;;0.00;0.00;;;;;;;;;;5100718;28;20021;-85
2022/08/27 03:04:27;;;;;;;0.00;0.00;;;;;;;;;;5098646;28;20024;-87
2022/08/27 03:06:53;;;;;;;0.00;0.00;;;;;;;;;;5100888;28;20327;-85
2022/08/27 03:09:19;;;;;;;0.00;0.00;;;;;;;;;;5098909;28;20110;-85
2022/08/27 03:11:44;;;;;;;0.90;0.35;;;;;;;;;;5099897;28;20034;-84
2022/08/27 03:14:11;;;;;;;0.13;0.10;;;;;;;;;;5096511;28;20058;-85
2022/08/27 03:16:37;;;;;;;0.00;0.00;;;;;;;;;;5101639;28;20463;-84
2022/08/27 03:19:06;;;;;;;0.00;0.00;;;;;;;;;;5099759;28;20127;-84
2022/08/27 03:21:34;;;;;;;0.52;0.52;;;;;;;;;;5099983;28;20383;-84
2022/08/27 03:24:00;;;;;;;0.00;0.00;;;;;;;;;;5098987;28;20037;-83
2022/08/27 03:26:27;;;;;;;0.00;0.00;;;;;;;;;;5104877;28;20722;-86
2022/08/27 03:28:53;;;;;;;0.00;0.00;;;;;;;;;;5102896;27;20028;-86
2022/08/27 03:31:25;;;;;;;0.00;0.00;;;;;;;;;;5104844;28;20038;-83
2022/08/27 03:33:55;;;;;;;0.00;0.00;;;;;;;;;;5103109;27;20020;-87
2022/08/27 03:36:21;;;;;;;0.00;0.00;;;;;;;;;;5101437;28;20031;-85
2022/08/27 03:38:46;;;;;;;0.00;0.00;;;;;;;;;;5103042;28;20134;-83
2022/08/27 03:41:12;;;;;;;3.00;1.98;;;;;;;;;;5102779;28;20474;-85
2022/08/27 03:43:41;;;;;;;0.15;0.15;;;;;;;;;;5096855;28;20386;-85
2022/08/27 03:46:07;;;;;;;0.00;0.00;;;;;;;;;;5098971;28;20024;-85
2022/08/27 03:48:33;;;;;;;0.00;0.00;;;;;;;;;;5098839;28;20047;-84
2022/08/27 03:51:05;;;;;;;0.00;0.00;;;;;;;;;;5107393;28;20024;-84
2022/08/27 03:53:31;;;;;;;0.28;0.28;;;;;;;;;;5096850;28;20031;-85
2022/08/27 03:55:56;;;;;;;0.00;0.00;;;;;;;;;;5106650;28;20039;-85
2022/08/27 03:58:22;;;;;;;0.28;0.25;;;;;;;;;;5106494;28;20080;-83
2022/08/27 04:00:47;;;;;;;0.00;0.00;;;;;;;;;;5104174;28;20024;-84
2022/08/27 04:03:13;;;;;;;0.00;0.00;;;;;;;;;;5095835;28;20023;-84
2022/08/27 04:05:39;;;;;;;0.00;0.00;;;;;;;;;;5093897;28;20027;-85
2022/08/27 04:08:05;;;;;;;0.00;0.00;;;;;;;;;;5104762;28;20106;-86
2022/08/27 04:10:32;;;;;;;1.58;1.48;;;;;;;;;;5097273;28;20028;-86
2022/08/27 04:12:57;;;;;;;0.00;0.00;;;;;;;;;;5106040;28;20036;-86
2022/08/27 04:15:23;;;;;;;0.00;0.00;;;;;;;;;;5102470;28;20119;-87
2022/08/27 04:17:48;;;;;;;0.00;0.00;;;;;;;;;;5106909;28;20026;-86
2022/08/27 04:20:13;;;;;;;1.55;0.63;;;;;;;;;;5107073;28;20039;-86
2022/08/27 04:22:39;;;;;;;0.57;0.57;;;;;;;;;;5103254;28;20016;-85
2022/08/27 04:25:06;;;;;;;0.00;0.00;;;;;;;;;;5099013;28;20383;-85
2022/08/27 04:27:35;;;;;;;0.70;0.70;;;;;;;;;;5101605;28;20117;-87
2022/08/27 04:30:02;;;;;;;0.20;0.20;;;;;;;;;;5099377;28;20028;-85
2022/08/27 04:32:28;;;;;;;0.00;0.00;;;;;;;;;;5081191;28;20035;-85
2022/08/27 04:34:55;;;;;;;0.00;0.00;;;;;;;;;;5101015;28;20020;-87
2022/08/27 04:37:22;;;;;;;0.08;0.08;;;;;;;;;;5080192;28;20031;-86
2022/08/27 04:39:48;;;;;;;0.30;0.30;;;;;;;;;;5097528;28;20032;-87
2022/08/27 04:42:17;;;;;;;0.00;0.00;;;;;;;;;;5098272;28;20932;-85
2022/08/27 04:44:43;;;;;;;0.00;0.00;;;;;;;;;;5102523;28;20032;-85
2022/08/27 04:47:09;;;;;;;0.10;0.10;;;;;;;;;;5101890;28;20020;-85
2022/08/27 04:49:35;;;;;;;0.03;0.03;;;;;;;;;;5098565;28;20034;-84
2022/08/27 04:52:01;;;;;;;0.00;0.00;;;;;;;;;;5082999;28;20080;-86
2022/08/27 04:54:27;;;;;;;0.00;0.00;;;;;;;;;;5083689;28;20043;-85
2022/08/27 04:56:53;;;;;;;0.00;0.00;;;;;;;;;;5079846;28;20028;-85
2022/08/27 04:59:19;;;;;;;0.00;0.00;;;;;;;;;;5102879;28;20038;-85
2022/08/27 05:01:44;;;;;;;0.95;0.95;;;;;;;;;;5101185;28;20040;-86
2022/08/27 05:04:13;;;;;;;0.10;0.10;;;;;;;;;;5092129;28;20031;-84
2022/08/27 05:06:38;;;;;;;0.43;0.43;;;;;;;;;;5098233;28;20023;-83
2022/08/27 05:09:04;;;;;;;0.05;0.05;;;;;;;;;;5091085;28;20373;-83
2022/08/27 05:11:33;;;;;;;14.70;1.20;;;;;;;;;;5092269;28;20046;-84
2022/08/27 05:14:00;;;;;;;0.00;0.00;;;;;;;;;;5076410;28;20025;-83
2022/08/27 05:16:26;;;;;;;0.00;0.00;;;;;;;;;;5096207;28;20035;-83
2022/08/27 05:18:52;;;;;;;0.10;0.10;;;;;;;;;;5071245;28;20392;-84
2022/08/27 05:21:27;;;;;;;0.00;0.00;;;;;;;;;;5092771;28;20035;-83
2022/08/27 05:23:55;;;;;;;0.00;0.00;;;;;;;;;;5097657;28;20028;-82
2022/08/27 05:26:21;;;;;;;3.50;0.95;;;;;;;;;;5068544;28;20085;-82
2022/08/27 05:28:47;;;;;;;2.83;0.57;;;;;;;;;;5089740;28;20028;-84
2022/08/27 05:31:13;;;;;;;0.20;0.20;;;;;;;;;;5091376;28;20104;-83
2022/08/27 05:33:41;;;;;;;0.03;0.03;;;;;;;;;;5093363;28;20536;-83
2022/08/27 05:36:15;;;;;;;0.32;0.32;;;;;;;;;;5096553;28;20486;-86
2022/08/27 05:38:42;;;;;;;0.00;0.00;;;;;;;;;;5093121;28;20035;-83
2022/08/27 05:41:13;;;;;;;0.10;0.10;;;;;;;;;;5072590;28;20059;-84
2022/08/27 05:43:40;;;;;;;0.10;0.10;;;;;;;;;;5096485;28;20023;-82
2022/08/27 05:46:08;;;;;;;0.00;0.00;;;;;;;;;;5091628;28;20029;-82
2022/08/27 05:48:35;;;;;;;0.15;0.15;;;;;;;;;;5073971;28;20020;-82
2022/08/27 05:51:13;;;;;;;0.82;0.82;;;;;;;;;;5095895;28;20061;-83
2022/08/27 05:53:39;;;;;;;0.32;0.32;;;;;;;;;;5098087;28;20471;-84
2022/08/27 05:56:12;;;;;;;0.10;0.10;;;;;;;;;;5073912;28;20091;-82
2022/08/27 06:01:22;;;;;;;0.20;0.20;;;;;;;;;;5092446;28;20431;-83
2022/08/27 06:03:48;;;;;;;0.00;0.00;;;;;;;;;;5080085;28;20036;-83
2022/08/27 06:06:13;;;;;;;0.17;0.17;;;;;;;;;;5070073;28;20081;-82
2022/08/27 06:08:39;;;;;;;0.10;0.10;;;;;;;;;;5074890;28;20114;-82
2022/08/27 06:11:06;;;;;;;0.00;0.00;;;;;;;;;;5075571;28;20031;-82
2022/08/27 06:13:35;;;;;;;0.20;0.20;;;;;;;;;;5089914;28;20106;-82
2022/08/27 06:16:06;;;;;;;1.45;0.85;;;;;;;;;;5091039;28;20459;-83
2022/08/27 06:18:32;;;;;;;0.00;0.00;;;;;;;;;;5095608;28;20031;-83
2022/08/27 06:20:58;;;;;;;0.55;0.55;;;;;;;;;;5078263;28;20036;-83
2022/08/27 06:23:24;;;;;;;1.08;0.90;;;;;;;;;;5097534;28;20042;-81
2022/08/27 06:25:50;;;;;;;0.15;0.15;;;;;;;;;;5095446;28;20123;-82
2022/08/27 06:28:16;;;;;;;0.32;0.32;;;;;;;;;;5091707;28;20052;-82
2022/08/27 06:30:42;;;;;;;0.10;0.10;;;;;;;;;;5072364;28;20472;-82
2022/08/27 06:33:07;;;;;;;0.00;0.00;;;;;;;;;;5093297;28;20024;-83
2022/08/27 06:35:36;;;;;;;0.70;0.70;;;;;;;;;;5092891;28;20031;-82
2022/08/27 06:38:01;;;;;;;0.38;0.38;;;;;;;;;;5093381;28;20023;-85
2022/08/27 06:40:29;;;;;;;0.22;0.22;;;;;;;;;;5106668;28;20036;-83
2022/08/27 06:42:54;;;;;;;0.00;0.00;;;;;;;;;;5072818;28;20067;-84
2022/08/27 06:45:20;;;;;;;0.20;0.20;;;;;;;;;;5104663;28;20026;-84
2022/08/27 06:47:45;;;;;;;0.00;0.00;;;;;;;;;;5089457;28;20024;-83
2022/08/27 06:50:11;;;;;;;0.25;0.25;;;;;;;;;;5069653;28;20043;-84
2022/08/27 06:52:37;;;;;;;0.75;0.50;;;;;;;;;;5094319;28;20026;-85
2022/08/27 06:55:03;;;;;;;2.15;1.90;;;;;;;;;;5073953;28;20507;-84
2022/08/27 06:57:28;;;;;;;0.43;0.43;;;;;;;;;;5107153;28;20828;-84
2022/08/27 06:59:54;;;;;;;0.98;0.98;;;;;;;;;;5092411;28;20055;-85
2022/08/27 07:02:19;;;;;;;0.15;0.15;;;;;;;;;;5106138;28;20041;-84
2022/08/27 07:04:45;;;;;;;0.05;0.03;;;;;;;;;;5105232;28;20028;-83
2022/08/27 07:07:12;;;;;;;0.10;0.10;;;;;;;;;;5102948;28;20058;-83
2022/08/27 07:09:38;;;;;;;1.55;0.70;;;;;;;;;;5076147;28;20025;-84
2022/08/27 07:12:04;;;;;;;0.20;0.20;;;;;;;;;;5112816;28;20024;-84
2022/08/27 07:14:29;;;;;;;0.10;0.10;;;;;;;;;;5109182;28;20011;-86
2022/08/27 07:16:55;;;;;;;8.27;1.33;;;;;;;;;;5113321;28;20070;-84
2022/08/27 07:19:20;;;;;;;0.03;0.03;;;;;;;;;;5093294;28;20050;-83
2022/08/27 07:21:46;;;;;;;0.40;0.13;;;;;;;;;;5090256;28;20096;-84
2022/08/27 07:24:11;;;;;;;0.03;0.03;;;;;;;;;;5088134;28;20020;-84
2022/08/27 07:26:40;;;;;;;0.10;0.05;;;;;;;;;;5097991;28;20029;-84
2022/08/27 07:29:07;;;;;;;0.17;0.17;;;;;;;;;;5094882;28;20042;-82
2022/08/27 07:31:34;;;;;;;0.00;0.00;;;;;;;;;;5090759;28;20024;-83
2022/08/27 07:34:01;;;;;;;0.10;0.10;;;;;;;;;;5080064;28;20024;-82
2022/08/27 07:36:27;;;;;;;0.10;0.10;;;;;;;;;;5108862;28;20051;-82
2022/08/27 07:38:52;;;;;;;0.10;0.10;;;;;;;;;;5099567;28;20073;-84
2022/08/27 07:41:17;;;;;;;18.17;2.75;;;;;;;;;;5105937;28;20031;-83
2022/08/27 07:46:27;;;;;;;0.55;0.52;;;;;;;;;;5107029;27;20038;-83
2022/08/27 07:48:55;;;;;;;0.40;0.10;;;;;;;;;;5105009;28;20977;-82
2022/08/27 07:51:22;;;;;;;0.20;0.20;;;;;;;;;;5102505;28;20039;-83
2022/08/27 07:53:48;;;;;;;0.10;0.10;;;;;;;;;;5108395;28;20067;-83
2022/08/27 07:56:14;;;;;;;0.30;0.30;;;;;;;;;;5095022;28;20075;-84
2022/08/27 07:58:40;;;;;;;0.22;0.22;;;;;;;;;;5092634;28;20028;-84
2022/08/27 08:01:06;;;;;;;0.75;0.47;;;;;;;;;;5110430;28;20050;-85
2022/08/27 08:03:32;;;;;;;0.20;0.13;;;;;;;;;;5104711;28;20059;-83
2022/08/27 08:06:11;;;;;;;1.92;1.77;;;;;;;;;;5097554;28;20443;-82
2022/08/27 08:08:39;;;;;;;0.10;0.10;;;;;;;;;;5103853;28;20024;-83
2022/08/27 08:11:09;;;;;;;0.13;0.13;;;;;;;;;;5093658;28;20093;-82
2022/08/27 08:13:35;;;;;;;0.00;0.00;;;;;;;;;;5091661;28;20031;-83
2022/08/27 08:16:00;;;;;;;0.00;0.00;;;;;;;;;;5107417;27;20039;-83
2022/08/27 08:18:26;;;;;;;0.22;0.22;;;;;;;;;;5101320;27;20049;-82
2022/08/27 08:20:52;;;;;;;0.00;0.00;;;;;;;;;;5098255;28;20059;-83
2022/08/27 08:23:17;;;;;;;0.17;0.17;;;;;;;;;;5103888;28;20091;-82
2022/08/27 08:25:43;;;;;;;0.38;0.38;;;;;;;;;;5090612;28;20032;-82
2022/08/27 08:28:10;;;;;;;0.20;0.20;;;;;;;;;;5091235;28;20056;-83
2022/08/27 08:30:36;;;;;;;0.35;0.35;;;;;;;;;;5099956;28;20027;-82
2022/08/27 08:33:01;;;;;;;1.08;0.60;;;;;;;;;;5102863;28;20032;-82
2022/08/27 08:35:27;;;;;;;6.75;0.43;;;;;;;;;;5097427;28;20066;-85
2022/08/27 08:37:52;;;;;;;0.10;0.10;;;;;;;;;;5083180;28;20035;-83
2022/08/27 08:40:30;;;;;;;0.43;0.25;;;;;;;;;;5082338;28;20365;-81
2022/08/27 08:42:56;;;;;;;0.25;0.25;;;;;;;;;;5088608;28;20027;-83
2022/08/27 08:45:26;;;;;;;0.00;0.00;;;;;;;;;;5093588;28;20031;-83
2022/08/27 08:48:11;;;;;;;0.17;0.17;;;;;;;;;;5102577;28;20563;-84
2022/08/27 08:50:53;;;;;;;0.73;0.30;;;;;;;;;;5092038;28;20034;-83
2022/08/27 08:53:45;;;;;;;0.00;0.00;;;;;;;;;;5096035;28;20039;-84
2022/08/27 08:56:18;;;;;;;0.00;0.00;;;;;;;;;;5086688;28;20445;-82
2022/08/27 08:58:54;;;;;;;0.10;0.10;;;;;;;;;;5104456;28;20387;-84
2022/08/27 09:01:20;;;;;;;0.47;0.32;;;;;;;;;;5089966;28;20023;-83
2022/08/27 09:03:58;;;;;;;0.10;0.10;;;;;;;;;;5086454;28;20032;-83
2022/08/27 09:06:51;;;;;;;0.22;0.22;;;;;;;;;;5102911;28;20068;-85
2022/08/27 09:09:24;;;;;;;0.00;0.00;;;;;;;;;;5040288;28;20048;-83
2022/08/27 09:11:52;;;;;;;0.00;0.00;;;;;;;;;;5084052;28;20024;-83
2022/08/27 09:14:42;;;;;;;0.00;0.00;;;;;;;;;;5104656;28;20024;-83
2022/08/27 09:17:08;;;;;;;0.00;0.00;;;;;;;;;;5078194;28;20410;-84
2022/08/27 09:19:33;;;;;;;0.00;0.00;;;;;;;;;;5095354;28;20032;-84
2022/08/27 09:22:37;;;;;;;0.35;0.35;;;;;;;;;;5091372;28;20105;-85
2022/08/27 09:25:19;;;;;;;0.00;0.00;;;;;;;;;;5086285;28;20039;-84
2022/08/27 09:27:46;;;;;;;0.00;0.00;;;;;;;;;;5076347;28;20070;-83
2022/08/27 09:30:23;;;;;;;7.57;1.25;;;;;;;;;;5095984;28;20066;-82
2022/08/27 09:33:03;;;;;;;0.17;0.10;;;;;;;;;;5102044;28;20056;-83
2022/08/27 09:35:40;;;;;;;0.00;0.00;;;;;;;;;;5103590;28;20023;-82
2022/08/27 09:38:05;;;;;;;0.10;0.10;;;;;;;;;;5108456;28;20044;-86
2022/08/27 09:40:40;;;;;;;0.75;0.63;;;;;;;;;;5103086;28;20409;-84
2022/08/27 09:43:22;;;;;;;0.00;0.00;;;;;;;;;;5096714;28;20031;-84
2022/08/27 09:45:52;;;;;;;0.10;0.10;;;;;;;;;;5101955;27;20031;-84
2022/08/27 09:48:20;;;;;;;0.40;0.38;;;;;;;;;;5095410;28;20463;-86
2022/08/27 09:50:51;;;;;;;0.10;0.10;;;;;;;;;;5078059;28;20039;-83
2022/08/27 09:53:29;;;;;;;0.10;0.10;;;;;;;;;;5101329;28;20032;-82
2022/08/27 09:56:01;;;;;;;2.10;0.70;;;;;;;;;;5095791;28;20052;-84
2022/08/27 09:58:32;;;;;;;0.60;0.52;;;;;;;;;;5100570;28;20447;-85
2022/08/27 10:01:20;;;;;;;0.20;0.20;;;;;;;;;;5106215;28;20379;-85
2022/08/27 10:03:46;;;;;;;0.10;0.10;;;;;;;;;;5102859;28;20053;-85
2022/08/27 10:06:12;;;;;;;0.00;0.00;;;;;;;;;;5100869;28;20444;-84
2022/08/27 10:08:47;;;;;;;0.32;0.22;;;;;;;;;;5107043;28;20083;-84
2022/08/27 10:11:32;;;;;;;3.72;0.52;;;;;;;;;;5081360;28;20471;-84
2022/08/27 10:14:10;;;;;;;0.03;0.03;;;;;;;;;;5102292;28;20422;-83
2022/08/27 10:16:57;;;;;;;0.00;0.00;;;;;;;;;;5086246;28;20106;-85
2022/08/27 10:19:36;;;;;;;0.20;0.20;;;;;;;;;;5103291;28;20016;-85
2022/08/27 10:22:07;;;;;;;0.00;0.00;;;;;;;;;;5098152;28;20391;-84
2022/08/27 10:25:00;;;;;;;0.00;0.00;;;;;;;;;;5099921;28;20130;-85
2022/08/27 10:27:37;;;;;;;0.43;0.43;;;;;;;;;;5103677;28;20038;-83
2022/08/27 10:30:07;;;;;;;0.00;0.00;;;;;;;;;;5084619;28;20475;-85
2022/08/27 10:32:48;;;;;;;0.65;0.65;;;;;;;;;;5083111;28;20024;-84
2022/08/27 10:35:40;;;;;;;0.00;0.00;;;;;;;;;;5107312;28;20024;-83
2022/08/27 10:38:23;;;;;;;0.13;0.13;;;;;;;;;;5076230;28;20035;-82
2022/08/27 10:41:00;;;;;;;0.10;0.10;;;;;;;;;;5100408;28;20032;-84
2022/08/27 10:43:41;;;;;;;0.00;0.00;;;;;;;;;;5089321;28;20032;-86
2022/08/27 10:46:30;;;;;;;0.00;0.00;;;;;;;;;;5113250;28;20032;-83
2022/08/27 10:49:05;;;;;;;0.40;0.40;;;;;;;;;;5093582;28;20027;-84
2022/08/27 10:51:39;;;;;;;0.08;0.08;;;;;;;;;;5086613;28;20027;-85
2022/08/27 10:54:25;;;;;;;4.43;1.45;;;;;;;;;;5106004;28;20032;-83
2022/08/27 10:56:59;;;;;;;0.45;0.45;;;;;;;;;;5087500;28;20031;-83
2022/08/27 10:59:33;;;;;;;0.10;0.10;;;;;;;;;;5107974;28;20024;-84
2022/08/27 11:02:06;;;;;;;0.00;0.00;;;;;;;;;;5084317;28;20028;-83
2022/08/27 11:04:39;;;;;;;0.10;0.10;;;;;;;;;;5103893;28;20030;-84
2022/08/27 11:07:16;;;;;;;0.45;0.45;;;;;;;;;;5113395;27;20019;-84
2022/08/27 11:09:45;;;;;;;0.20;0.20;;;;;;;;;;5103597;28;20104;-86
2022/08/27 11:12:13;;;;;;;0.20;0.20;;;;;;;;;;5080386;28;20040;-85
2022/08/27 11:15:24;;;;;;;0.10;0.10;;;;;;;;;;5095954;28;20391;-85
2022/08/27 11:17:55;;;;;;;0.30;0.30;;;;;;;;;;5105603;28;20027;-85
2022/08/27 11:20:42;;;;;;;0.20;0.20;;;;;;;;;;5100911;28;20486;-85
2022/08/27 11:23:18;;;;;;;0.40;0.40;;;;;;;;;;5080625;28;20028;-86
2022/08/27 11:25:57;;;;;;;0.00;0.00;;;;;;;;;;5109591;28;20028;-84
2022/08/27 11:28:30;;;;;;;0.10;0.10;;;;;;;;;;5100522;28;20024;-85
2022/08/27 11:31:01;;;;;;;0.30;0.30;;;;;;;;;;5101422;28;20055;-85
2022/08/27 11:33:37;;;;;;;0.00;0.00;;;;;;;;;;5108529;28;20023;-84
2022/08/27 11:36:15;;;;;;;0.10;0.10;;;;;;;;;;5108725;28;20027;-83
2022/08/27 11:38:44;;;;;;;0.17;0.17;;;;;;;;;;5107833;28;20031;-84
2022/08/27 11:41:16;;;;;;;0.00;0.00;;;;;;;;;;5099333;28;20027;-86
2022/08/27 11:43:43;;;;;;;0.95;0.73;;;;;;;;;;5100745;28;20376;-87
2022/08/27 11:46:09;;;;;;;0.00;0.00;;;;;;;;;;5099388;28;20028;-83
2022/08/27 11:48:39;;;;;;;0.10;0.10;;;;;;;;;;5092898;28;20080;-84
2022/08/27 11:51:09;;;;;;;0.20;0.20;;;;;;;;;;5099553;28;20019;-86
2022/08/27 11:53:40;;;;;;;0.10;0.10;;;;;;;;;;5105304;28;20080;-84
2022/08/27 11:56:20;;;;;;;0.15;0.15;;;;;;;;;;5102835;28;20041;-87
2022/08/27 11:58:45;;;;;;;1.45;0.55;;;;;;;;;;5105444;28;20396;-84
2022/08/27 12:01:23;;;;;;;0.00;0.00;;;;;;;;;;5088574;28;20034;-83
2022/08/27 12:04:04;;;;;;;0.20;0.10;;;;;;;;;;5108116;28;20069;-85
2022/08/27 12:06:44;;;;;;;0.13;0.13;;;;;;;;;;5110609;28;20020;-84
2022/08/27 12:09:15;;;;;;;;;;;;;;;;;;5099715;28;20138;-84
2022/08/27 12:11:54;;;;;;;0.00;0.00;;;;;;;;;;5100403;28;19912;-83
2022/08/27 12:14:35;;;;;;;0.15;0.15;;;;;;;;;;5110452;27;20028;-83
2022/08/27 12:17:34;;;;;;;0.10;0.10;;;;;;;;;;5106557;28;20031;-83
2022/08/27 12:20:11;;;;;;;0.75;0.50;;;;;;;;;;5106555;27;20028;-84
2022/08/27 12:26:02;;;;;;;0.20;0.20;;;;;;;;;;5091027;28;20048;-84
2022/08/27 12:28:30;;;;;;;0.00;0.00;;;;;;;;;;5082209;28;20023;-84
2022/08/27 12:30:57;;;;;;;0.10;0.10;;;;;;;;;;5097693;28;20557;-85
2022/08/27 12:33:42;;;;;;;0.90;0.90;;;;;;;;;;5102939;28;20028;-86
2022/08/27 12:36:19;;;;;;;0.05;0.05;;;;;;;;;;5090186;28;20492;-83
2022/08/27 12:38:49;;;;;;;0.25;0.25;;;;;;;;;;5111472;28;20035;-84
2022/08/27 12:41:37;;;;;;;0.77;0.22;;;;;;;;;;5094822;28;20430;-86
2022/08/27 12:44:12;;;;;;;0.10;0.10;;;;;;;;;;5088924;28;20027;-84
2022/08/27 12:46:50;;;;;;;0.00;0.00;;;;;;;;;;5102613;27;20029;-85
2022/08/27 12:49:19;;;;;;;0.33;0.30;;;;;;;;;;5098760;28;20361;-85
2022/08/27 12:51:45;;;;;;;0.65;0.10;;;;;;;;;;5104271;28;20023;-84
2022/08/27 12:54:41;;;;;;;0.10;0.10;;;;;;;;;;5089958;28;20501;-83
2022/08/27 12:57:39;;;;;;;0.65;0.65;;;;;;;;;;5094235;28;20028;-82
2022/08/27 13:00:09;;;;;;;0.10;0.10;;;;;;;;;;5092752;28;20114;-84
2022/08/27 13:03:15;;;;;;;0.43;0.40;;;;;;;;;;5094047;28;20024;-86
2022/08/27 13:05:44;;;;;;;0.10;0.10;;;;;;;;;;5093027;28;20031;-84
2022/08/27 13:08:36;;;;;;;0.00;0.00;;;;;;;;;;5094170;28;20032;-85
2022/08/27 13:11:20;;;;;;;0.00;0.00;;;;;;;;;;5091089;28;20089;-83
2022/08/27 13:13:47;;;;;;;0.20;0.20;;;;;;;;;;5092091;28;20028;-84
2022/08/27 13:16:13;;;;;;;0.15;0.15;;;;;;;;;;5092950;28;20105;-86
2022/08/27 13:18:39;;;;;;;0.30;0.30;;;;;;;;;;5087603;28;21135;-83
2022/08/27 13:21:19;;;;;;;0.22;0.20;;;;;;;;;;5093790;28;20488;-84
2022/08/27 13:24:00;;;;;;;0.20;0.20;;;;;;;;;;5095149;28;20027;-86
2022/08/27 13:26:30;;;;;;;0.30;0.30;;;;;;;;;;5095047;28;20035;-84
2022/08/27 13:28:57;;;;;;;0.25;0.22;;;;;;;;;;5094932;28;20118;-86
2022/08/27 13:31:25;;;;;;;0.00;0.00;;;;;;;;;;5094121;28;20038;-85
2022/08/27 13:33:57;;;;;;;0.10;0.10;;;;;;;;;;5071281;28;20399;-84
2022/08/27 13:36:32;;;;;;;0.20;0.20;;;;;;;;;;5088999;28;20468;-85
2022/08/27 13:39:03;;;;;;;0.65;0.65;;;;;;;;;;5086182;28;20024;-84
2022/08/27 13:41:37;;;;;;;0.10;0.10;;;;;;;;;;5093877;28;20027;-84
2022/08/27 13:44:09;;;;;;;0.00;0.00;;;;;;;;;;5092560;28;20334;-84
2022/08/27 13:46:47;;;;;;;3.92;0.20;;;;;;;;;;5086785;28;20380;-83
2022/08/27 13:49:24;;;;;;;0.20;0.20;;;;;;;;;;5067296;28;20024;-83
2022/08/27 13:51:59;;;;;;;0.10;0.10;;;;;;;;;;5088631;28;20040;-84
2022/08/27 13:54:25;;;;;;;1.00;0.28;;;;;;;;;;5090853;28;20047;-84
2022/08/27 13:56:51;;;;;;;0.20;0.20;;;;;;;;;;5107192;28;20523;-84
2022/08/27 13:59:17;;;;;;;3.83;2.08;;;;;;;;;;5109815;28;20028;-85
2022/08/27 14:02:10;;;;;;;0.10;0.10;;;;;;;;;;5110131;28;20023;-86
2022/08/27 14:04:40;;;;;;;2.17;0.52;;;;;;;;;;5109175;28;20060;-86
2022/08/27 14:07:10;;;;;;;1.02;0.80;;;;;;;;;;5110400;28;20034;-85
2022/08/27 14:09:47;;;;;;;0.25;0.25;;;;;;;;;;5110630;28;20370;-84
2022/08/27 14:12:42;;;;;;;0.13;0.13;;;;;;;;;;5105984;28;21443;-85
2022/08/27 14:15:14;;;;;;;0.13;0.13;;;;;;;;;;5105799;28;20040;-85
2022/08/27 14:17:40;;;;;;;0.77;0.77;;;;;;;;;;5107184;28;20027;-85
2022/08/27 14:20:06;;;;;;;0.10;0.10;;;;;;;;;;5107210;28;20028;-83
2022/08/27 14:22:35;;;;;;;0.00;0.00;;;;;;;;;;5110802;28;20053;-84
2022/08/27 14:25:00;;;;;;;0.22;0.20;;;;;;;;;;5110452;28;20032;-84
2022/08/27 14:27:27;;;;;;;1.08;0.10;;;;;;;;;;5106025;28;20035;-84
2022/08/27 14:29:54;;;;;;;0.30;0.30;;;;;;;;;;5109673;28;20494;-87
2022/08/27 14:32:20;;;;;;;1.00;0.17;;;;;;;;;;5111019;28;20091;-86
2022/08/27 14:34:46;;;;;;;0.08;0.08;;;;;;;;;;5106155;28;20128;-84
2022/08/27 14:37:13;;;;;;;0.10;0.10;;;;;;;;;;5103969;28;20028;-85
2022/08/27 14:39:42;;;;;;;0.05;0.05;;;;;;;;;;5109429;28;20043;-85
2022/08/27 14:42:08;;;;;;;0.10;0.10;;;;;;;;;;5105448;28;20024;-86
2022/08/27 14:44:34;;;;;;;0.20;0.20;;;;;;;;;;5106635;28;20359;-85
2022/08/27 14:47:00;;;;;;;0.43;0.43;;;;;;;;;;5110876;28;20030;-86
2022/08/27 14:49:33;;;;;;;0.30;0.30;;;;;;;;;;5108580;28;20031;-85
2022/08/27 14:52:00;;;;;;;0.10;0.10;;;;;;;;;;5107079;28;20065;-86
2022/08/27 14:54:26;;;;;;;0.17;0.10;;;;;;;;;;5115052;28;20043;-86
2022/08/27 14:56:53;;;;;;;0.00;0.00;;;;;;;;;;5126086;27;20053;-85
2022/08/27 14:59:19;;;;;;;0.00;0.00;;;;;;;;;;5129597;27;20019;-87
2022/08/27 15:01:45;;;;;;;0.00;0.00;;;;;;;;;;5127895;27;20042;-85
2022/08/27 15:04:11;;;;;;;0.10;0.10;;;;;;;;;;5132463;27;20019;-85
2022/08/27 15:06:36;;;;;;;0.30;0.30;;;;;;;;;;5110880;28;20023;-83
2022/08/27 15:09:02;;;;;;;0.20;0.20;;;;;;;;;;5134103;28;20038;-84
2022/08/27 15:11:31;;;;;;;0.30;0.30;;;;;;;;;;5115115;28;20015;-86